Terminal Aerodrome Forecast
Issued by NWS Jackson, MS

Home | Current Version | Previous Version | Text Only | Print | Product List | Glossary On
Versions: 1 2 3 4 5 6 7 8 9 10 11 12 13 14 15
000
FTUS44 KJAN 250155 AAA
TAFJAN
TAF AMD
KJAN 250155Z 2502/2524 17010KT 3SM TSRA BR SCT015 BKN025CB OVC050
     FM250400 16010KT 6SM -SHRA VCTS FEW010 SCT020 BKN030CB
     FM251500 16011KT P6SM VCTS SCT030 BKN050CB=

USA.gov is the U.S. government's official web portal to all federal, state and local government web resources and services.